Terminal Aerodrome Forecast
Issued by NWS

Home | Current Version | Previous Version | Graphics & Text | Print | Product List | Glossary On
Versions: 1 2 3 4 5 6 7 8 9 10 11 12 13 14
494
FTUS43 KMPX 222336
TAFRWF
TAF
KRWF 222336Z 2300/2324 32013G20KT P6SM OVC015
     FM231000 34008KT P6SM OVC015
     FM231400 05010KT P6SM OVC025
     FM232000 05014G25KT P6SM OVC025=

USA.gov is the U.S. government's official web portal to all federal, state and local government web resources and services.